Time;durP1;ratioP1;P1;durP2;ratioP2;P2;SDS_P1;SDS_P2;PMS_P1;PMS_P2;Temp;Humidity;BMP_temperature;BMP_pressure;BME280_temperature;BME280_humidity;BME280_pressure;Samples;Min_cycle;Max_cycle;Signal;HPM_P1;HPM_P2
2021/01/15 00:01:22;;;;;;;33.45;15.75;;;-1.30;97.00;;;;;;5076672;27;20057;-84
2021/01/15 00:03:47;;;;;;;32.47;15.55;;;-1.20;96.90;;;;;;5109817;27;20474;-85
2021/01/15 00:06:21;;;;;;;26.48;14.18;;;-1.10;97.10;;;;;;5083265;27;20031;-84
2021/01/15 00:08:47;;;;;;;28.00;17.17;;;-1.10;97.10;;;;;;5075093;27;20031;-84
2021/01/15 00:11:19;;;;;;;30.77;13.15;;;-1.10;97.10;;;;;;5093500;27;20033;-83
2021/01/15 00:13:45;;;;;;;26.45;14.95;;;-1.00;97.20;;;;;;5088852;27;20110;-84
2021/01/15 00:16:23;;;;;;;29.77;13.68;;;-1.00;97.10;;;;;;5075359;27;20111;-85
2021/01/15 00:18:50;;;;;;;28.33;13.13;;;-0.90;97.10;;;;;;5090243;27;20387;-85
2021/01/15 00:21:34;;;;;;;25.48;12.85;;;-0.90;97.30;;;;;;5092076;27;20027;-83
2021/01/15 00:24:01;;;;;;;21.02;10.77;;;-0.80;97.20;;;;;;5083760;27;20510;-85
2021/01/15 00:26:28;;;;;;;20.08;10.93;;;-0.80;97.20;;;;;;5092862;27;20534;-84
2021/01/15 00:28:54;;;;;;;23.60;12.27;;;-0.70;97.30;;;;;;5091090;27;20031;-84
2021/01/15 00:31:20;;;;;;;21.60;11.15;;;-0.70;97.20;;;;;;5075459;27;20027;-85
2021/01/15 00:33:46;;;;;;;20.13;10.43;;;-0.70;97.10;;;;;;5093295;27;20473;-85
2021/01/15 00:36:11;;;;;;;21.70;11.15;;;-0.70;97.20;;;;;;5106915;27;20043;-83
2021/01/15 00:38:37;;;;;;;20.67;11.52;;;-0.70;97.20;;;;;;5101732;27;20027;-84
2021/01/15 00:41:08;;;;;;;23.42;11.00;;;-0.60;97.20;;;;;;5107934;27;20070;-83
2021/01/15 00:43:34;;;;;;;20.98;11.13;;;-0.50;97.20;;;;;;5091630;27;20023;-85
2021/01/15 00:46:00;;;;;;;20.63;9.63;;;-0.50;97.10;;;;;;5087095;27;20046;-85
2021/01/15 00:48:26;;;;;;;17.80;10.73;;;-0.50;96.90;;;;;;5077795;27;20122;-84
2021/01/15 00:50:51;;;;;;;21.83;10.20;;;-0.40;96.80;;;;;;5091224;27;20462;-83
2021/01/15 00:53:17;;;;;;;19.20;10.00;;;-0.40;96.90;;;;;;5088251;27;20037;-84
2021/01/15 00:55:42;;;;;;;17.67;10.02;;;-0.40;96.80;;;;;;5092657;27;20031;-84
2021/01/15 00:58:11;;;;;;;19.95;10.40;;;-0.40;97.00;;;;;;5093079;27;20054;-84
2021/01/15 01:00:37;;;;;;;16.23;10.05;;;-0.30;96.90;;;;;;5091672;27;20035;-85
2021/01/15 01:03:05;;;;;;;16.75;9.20;;;-0.40;97.30;;;;;;5052130;27;20031;-85
2021/01/15 01:05:31;;;;;;;19.15;11.02;;;-0.40;96.90;;;;;;5090888;27;20037;-84
2021/01/15 01:07:57;;;;;;;12.73;7.80;;;-0.20;96.90;;;;;;5088013;27;20034;-84
2021/01/15 01:10:23;;;;;;;16.73;9.52;;;-0.40;97.10;;;;;;5075976;27;20120;-84
2021/01/15 01:12:48;;;;;;;14.10;8.32;;;-0.40;97.00;;;;;;5091690;27;20438;-84
2021/01/15 01:15:14;;;;;;;14.70;8.88;;;-0.30;96.90;;;;;;5074757;27;20023;-86
2021/01/15 01:17:40;;;;;;;13.90;8.80;;;-0.30;96.70;;;;;;5080799;27;20039;-85
2021/01/15 01:20:06;;;;;;;14.82;8.77;;;-0.20;96.60;;;;;;5088850;27;20031;-84
2021/01/15 01:22:32;;;;;;;14.20;8.30;;;-0.20;96.70;;;;;;5090572;27;20031;-84
2021/01/15 01:24:58;;;;;;;15.45;9.13;;;-0.20;96.80;;;;;;5090069;27;20077;-84
2021/01/15 01:27:23;;;;;;;15.35;9.43;;;-0.20;96.70;;;;;;5107534;27;20026;-85
2021/01/15 01:29:49;;;;;;;17.75;7.95;;;-0.20;96.70;;;;;;5103553;27;20475;-85
2021/01/15 01:32:14;;;;;;;14.90;7.95;;;-0.20;96.80;;;;;;5108495;27;20039;-84
2021/01/15 01:34:40;;;;;;;14.02;8.15;;;-0.10;96.40;;;;;;5073850;28;20035;-85
2021/01/15 01:37:06;;;;;;;15.93;8.95;;;-0.20;96.90;;;;;;5089833;27;20038;-85
2021/01/15 01:39:32;;;;;;;12.57;8.38;;;-0.20;96.80;;;;;;5090856;27;20101;-84
2021/01/15 01:41:57;;;;;;;17.25;8.55;;;-0.20;96.60;;;;;;5050833;27;20153;-84
2021/01/15 01:44:23;;;;;;;18.70;9.30;;;-0.10;96.50;;;;;;5089248;27;20432;-84
2021/01/15 01:46:49;;;;;;;13.65;7.80;;;-0.10;96.60;;;;;;5087994;27;20043;-83
2021/01/15 01:49:14;;;;;;;13.35;8.52;;;-0.10;96.50;;;;;;5078066;27;20023;-83
2021/01/15 01:51:40;;;;;;;11.63;7.43;;;-0.10;96.20;;;;;;5104430;28;20032;-83
2021/01/15 01:54:05;;;;;;;15.45;9.50;;;-0.10;96.40;;;;;;5107033;27;20030;-83
2021/01/15 01:56:31;;;;;;;12.07;6.88;;;0.00;96.50;;;;;;5078597;27;20027;-83
2021/01/15 01:58:56;;;;;;;16.60;8.45;;;-0.10;96.60;;;;;;5090292;27;20042;-81
2021/01/15 02:01:22;;;;;;;15.15;7.93;;;0.00;96.40;;;;;;5088258;28;20059;-83
2021/01/15 02:03:52;;;;;;;17.80;9.00;;;0.00;95.60;;;;;;5090365;28;20487;-82
2021/01/15 02:06:18;;;;;;;15.35;8.15;;;0.00;95.60;;;;;;5079297;28;20050;-82
2021/01/15 02:08:43;;;;;;;12.88;8.00;;;0.00;96.10;;;;;;5087789;28;20028;-82
2021/01/15 02:11:34;;;;;;;18.02;8.25;;;0.00;96.40;;;;;;5108968;27;20068;-84
2021/01/15 02:14:24;;;;;;;16.58;9.57;;;0.00;96.10;;;;;;5097954;27;20069;-83
2021/01/15 02:16:50;;;;;;;15.57;9.20;;;0.00;96.30;;;;;;5098721;27;20028;-84
2021/01/15 02:19:37;;;;;;;15.98;8.27;;;0.00;96.30;;;;;;5094047;27;20045;-83
2021/01/15 02:22:15;;;;;;;13.98;8.80;;;0.00;95.90;;;;;;5104491;27;20031;-82
2021/01/15 02:24:59;;;;;;;16.90;9.30;;;0.10;96.10;;;;;;5101632;27;20031;-83
2021/01/15 02:27:41;;;;;;;15.00;8.73;;;0.10;96.00;;;;;;5129621;27;20054;-84
2021/01/15 02:30:32;;;;;;;17.35;9.45;;;0.10;96.20;;;;;;5102121;27;20111;-84
2021/01/15 02:33:20;;;;;;;15.60;10.07;;;0.00;96.30;;;;;;5110394;27;20080;-83
2021/01/15 02:35:52;;;;;;;19.02;11.13;;;0.10;96.30;;;;;;5109385;27;20032;-84
2021/01/15 02:38:36;;;;;;;17.85;9.15;;;0.10;96.10;;;;;;5091941;27;20382;-83
2021/01/15 02:41:04;;;;;;;19.98;9.82;;;0.10;96.10;;;;;;5107255;27;20031;-83
2021/01/15 02:43:31;;;;;;;15.48;9.50;;;0.10;96.20;;;;;;5112175;27;20019;-83
2021/01/15 02:45:57;;;;;;;17.60;9.55;;;0.10;96.10;;;;;;5095936;27;20033;-83
2021/01/15 02:48:23;;;;;;;17.92;9.88;;;0.10;96.40;;;;;;5078221;27;20035;-83
2021/01/15 02:50:48;;;;;;;17.10;10.50;;;0.10;96.10;;;;;;5091243;27;20035;-83
2021/01/15 02:53:15;;;;;;;16.08;9.73;;;0.10;96.00;;;;;;5088680;27;20085;-83
2021/01/15 02:55:40;;;;;;;21.65;10.80;;;0.10;96.10;;;;;;5095436;27;20530;-83
2021/01/15 02:58:07;;;;;;;15.88;9.07;;;0.10;96.10;;;;;;5078891;27;20035;-83
2021/01/15 03:00:33;;;;;;;20.50;11.15;;;0.10;96.00;;;;;;5093856;27;20513;-83
2021/01/15 03:03:02;;;;;;;23.02;12.02;;;0.20;96.20;;;;;;5078652;27;20047;-83
2021/01/15 03:05:39;;;;;;;23.90;11.45;;;0.10;96.40;;;;;;5125913;27;20030;-83
2021/01/15 03:08:05;;;;;;;21.27;11.35;;;0.10;96.30;;;;;;5106302;27;20057;-83
2021/01/15 03:10:31;;;;;;;22.20;11.55;;;0.10;96.20;;;;;;5093847;27;20363;-83
2021/01/15 03:12:57;;;;;;;23.13;12.75;;;0.10;96.20;;;;;;5096309;27;20359;-83
2021/01/15 03:15:22;;;;;;;26.75;12.38;;;0.20;96.40;;;;;;5093613;27;20386;-84
2021/01/15 03:17:49;;;;;;;20.65;11.45;;;0.20;96.40;;;;;;5076197;27;20467;-84
2021/01/15 03:20:14;;;;;;;25.00;13.65;;;0.20;96.40;;;;;;5091258;27;20039;-83
2021/01/15 03:22:44;;;;;;;20.33;11.77;;;0.20;96.50;;;;;;5110587;27;20491;-83
2021/01/15 03:25:11;;;;;;;27.48;14.43;;;0.20;96.50;;;;;;5089234;27;20038;-82
2021/01/15 03:27:46;;;;;;;31.20;16.67;;;0.20;96.50;;;;;;5069967;27;20031;-84
2021/01/15 03:30:13;;;;;;;29.03;15.00;;;0.20;96.50;;;;;;5101014;27;20028;-83
2021/01/15 03:32:39;;;;;;;26.73;14.48;;;0.20;96.70;;;;;;5094125;27;20256;-83
2021/01/15 03:35:05;;;;;;;26.70;14.15;;;0.30;96.60;;;;;;5094503;27;20441;-84
2021/01/15 03:37:32;;;;;;;24.63;14.43;;;0.30;96.60;;;;;;5093427;27;20367;-82
2021/01/15 03:39:57;;;;;;;27.30;13.48;;;0.20;96.60;;;;;;5092701;27;20035;-82
2021/01/15 03:42:23;;;;;;;29.67;14.38;;;0.20;96.60;;;;;;5076814;27;20097;-83
2021/01/15 03:44:49;;;;;;;26.02;14.30;;;0.30;96.60;;;;;;5093590;27;20020;-82
2021/01/15 03:47:14;;;;;;;30.88;17.13;;;0.30;96.70;;;;;;5092193;27;20032;-83
2021/01/15 03:49:40;;;;;;;25.13;14.43;;;0.20;96.70;;;;;;5090655;27;20023;-84
2021/01/15 03:52:11;;;;;;;27.92;16.30;;;0.30;96.70;;;;;;5076963;27;20028;-84
2021/01/15 03:54:37;;;;;;;29.02;14.98;;;0.30;96.80;;;;;;5080681;27;20382;-83
2021/01/15 03:57:03;;;;;;;35.13;17.13;;;0.20;96.80;;;;;;5076684;27;20035;-83
2021/01/15 03:59:29;;;;;;;29.80;16.52;;;0.20;96.90;;;;;;5076582;27;20031;-83
2021/01/15 04:01:54;;;;;;;30.30;16.88;;;0.20;96.90;;;;;;5074513;27;20035;-84
2021/01/15 04:04:20;;;;;;;26.88;14.05;;;0.20;96.90;;;;;;5079680;27;20045;-84
2021/01/15 04:06:45;;;;;;;28.38;14.40;;;0.30;96.80;;;;;;5090872;27;20023;-84
2021/01/15 04:09:11;;;;;;;32.58;16.80;;;0.30;96.80;;;;;;5079129;27;20133;-84
2021/01/15 04:11:36;;;;;;;30.73;15.55;;;0.30;97.00;;;;;;5099394;27;20129;-84
2021/01/15 04:14:03;;;;;;;26.52;14.73;;;0.30;96.90;;;;;;5087906;27;20122;-83
2021/01/15 04:16:29;;;;;;;30.85;16.05;;;0.30;96.90;;;;;;5082182;27;20032;-84
2021/01/15 04:18:55;;;;;;;29.17;15.00;;;0.20;96.80;;;;;;5091356;27;20035;-84
2021/01/15 04:21:20;;;;;;;35.90;17.90;;;0.30;96.80;;;;;;5089959;27;20047;-85
2021/01/15 04:23:46;;;;;;;31.70;16.95;;;0.30;96.90;;;;;;5076022;27;20076;-84
2021/01/15 04:26:18;;;;;;;36.53;17.35;;;0.30;97.00;;;;;;5073947;27;20023;-84
2021/01/15 04:28:44;;;;;;;33.83;17.17;;;0.30;96.90;;;;;;5091803;27;20034;-84
2021/01/15 04:31:09;;;;;;;31.42;16.25;;;0.30;96.90;;;;;;5105579;27;20030;-83
2021/01/15 04:33:35;;;;;;;29.63;15.32;;;0.30;96.70;;;;;;5073363;28;20023;-83
2021/01/15 04:36:00;;;;;;;31.30;16.20;;;0.30;96.90;;;;;;5093133;27;20034;-84
2021/01/15 04:38:26;;;;;;;35.72;16.30;;;0.30;96.80;;;;;;5090941;27;20346;-84
2021/01/15 04:40:58;;;;;;;31.52;16.77;;;0.30;96.70;;;;;;5088379;27;20046;-82
2021/01/15 04:43:27;;;;;;;31.13;16.48;;;0.30;96.80;;;;;;5107278;27;20515;-82
2021/01/15 04:45:53;;;;;;;31.10;18.38;;;0.30;96.80;;;;;;5090937;27;20032;-83
2021/01/15 04:48:18;;;;;;;31.58;18.85;;;0.30;96.90;;;;;;5073266;27;20502;-83
2021/01/15 04:50:44;;;;;;;33.60;16.95;;;0.30;96.90;;;;;;5089247;27;20454;-85
2021/01/15 04:53:10;;;;;;;31.63;16.80;;;0.30;97.00;;;;;;5077546;27;20027;-84
2021/01/15 04:55:36;;;;;;;32.65;16.13;;;0.30;97.00;;;;;;5088442;27;20027;-84
2021/01/15 04:58:01;;;;;;;35.75;20.80;;;0.30;97.00;;;;;;5089880;27;20039;-84
2021/01/15 05:00:27;;;;;;;32.30;17.83;;;0.30;97.10;;;;;;5089337;27;20547;-83
2021/01/15 05:02:53;;;;;;;39.00;18.13;;;0.30;97.10;;;;;;5105807;27;20489;-83
2021/01/15 05:05:23;;;;;;;33.00;16.85;;;0.30;97.10;;;;;;5073734;27;20152;-85
2021/01/15 05:07:58;;;;;;;35.42;19.92;;;0.30;97.10;;;;;;5089112;27;20072;-85
2021/01/15 05:10:24;;;;;;;35.05;17.05;;;0.20;97.00;;;;;;5089907;27;20060;-84
2021/01/15 05:12:49;;;;;;;31.90;16.85;;;0.30;97.00;;;;;;5090884;27;20328;-84
2021/01/15 05:15:15;;;;;;;31.10;17.60;;;0.30;97.00;;;;;;5072628;27;20467;-85
2021/01/15 05:17:41;;;;;;;33.00;17.40;;;0.30;97.00;;;;;;5084616;27;20023;-84
2021/01/15 05:20:08;;;;;;;32.58;18.95;;;0.30;97.10;;;;;;5075817;27;20043;-84
2021/01/15 05:22:33;;;;;;;35.10;17.13;;;0.20;97.00;;;;;;5071734;27;20030;-83
2021/01/15 05:24:59;;;;;;;41.63;19.67;;;0.20;97.00;;;;;;5086839;27;20031;-84
2021/01/15 05:27:40;;;;;;;38.85;17.65;;;0.30;97.00;;;;;;5090366;27;20027;-84
2021/01/15 05:30:18;;;;;;;33.13;18.40;;;0.30;97.00;;;;;;5078864;27;20058;-83
2021/01/15 05:32:47;;;;;;;33.75;19.52;;;0.20;97.00;;;;;;5100862;27;20114;-84
2021/01/15 05:35:13;;;;;;;34.33;17.23;;;0.20;97.10;;;;;;5090278;27;20346;-84
2021/01/15 05:37:39;;;;;;;33.40;17.40;;;0.20;97.10;;;;;;5078416;27;20042;-83
2021/01/15 05:40:05;;;;;;;35.78;17.95;;;0.30;97.20;;;;;;5072957;27;20228;-84
2021/01/15 05:42:44;;;;;;;33.58;19.00;;;0.30;97.10;;;;;;5080081;27;20470;-85
2021/01/15 05:45:16;;;;;;;40.00;19.42;;;0.30;97.10;;;;;;5070841;27;20513;-84
2021/01/15 05:47:43;;;;;;;34.53;18.15;;;0.30;97.00;;;;;;5084791;27;20031;-85
2021/01/15 05:50:10;;;;;;;39.40;18.75;;;0.20;97.00;;;;;;5085263;27;20391;-84
2021/01/15 05:52:36;;;;;;;34.05;17.90;;;0.30;97.10;;;;;;5079930;28;20031;-84
2021/01/15 05:55:14;;;;;;;35.00;18.92;;;0.20;97.00;;;;;;5061551;28;20114;-84
2021/01/15 05:57:39;;;;;;;36.97;18.67;;;0.20;97.10;;;;;;5073558;27;20494;-84
2021/01/15 06:00:06;;;;;;;42.53;20.08;;;0.20;97.10;;;;;;5085573;28;20027;-83
2021/01/15 06:02:31;;;;;;;39.10;17.98;;;0.20;97.10;;;;;;5088082;27;20023;-83
2021/01/15 06:04:57;;;;;;;38.50;20.17;;;0.20;96.90;;;;;;5089893;28;20386;-84
2021/01/15 06:07:22;;;;;;;35.33;17.92;;;0.20;97.00;;;;;;5088279;27;20058;-83
2021/01/15 06:09:48;;;;;;;38.53;19.38;;;0.20;97.10;;;;;;5097395;28;20015;-83
2021/01/15 06:12:15;;;;;;;39.05;21.15;;;0.20;97.00;;;;;;5074360;28;20039;-84
2021/01/15 06:14:50;;;;;;;40.03;21.73;;;0.20;97.10;;;;;;5084469;28;20054;-84
2021/01/15 06:17:19;;;;;;;39.95;22.25;;;0.20;97.10;;;;;;5075177;27;20028;-83
2021/01/15 06:19:49;;;;;;;43.25;23.67;;;0.20;97.00;;;;;;5091038;28;20031;-84
2021/01/15 06:22:32;;;;;;;36.20;20.92;;;0.20;97.30;;;;;;5069847;28;20051;-83
2021/01/15 06:25:17;;;;;;;39.25;20.23;;;0.20;97.00;;;;;;5073011;28;20109;-85
2021/01/15 06:27:43;;;;;;;38.20;22.40;;;0.20;97.00;;;;;;5104692;28;20432;-84
2021/01/15 06:30:19;;;;;;;40.90;22.25;;;0.20;97.10;;;;;;5080013;28;20046;-84
2021/01/15 06:32:51;;;;;;;39.72;23.05;;;0.20;97.00;;;;;;5075014;28;20110;-84
2021/01/15 06:35:26;;;;;;;41.97;20.27;;;0.20;97.00;;;;;;5090362;28;20132;-83
2021/01/15 06:38:03;;;;;;;38.40;19.48;;;0.20;97.10;;;;;;5093345;28;20031;-82
2021/01/15 06:40:39;;;;;;;37.85;19.20;;;0.20;97.10;;;;;;5108856;28;20498;-82
2021/01/15 06:43:12;;;;;;;36.17;17.48;;;0.20;97.00;;;;;;5088114;28;20127;-82
2021/01/15 06:45:42;;;;;;;40.13;20.83;;;0.20;96.90;;;;;;5081202;28;20042;-82
2021/01/15 06:48:09;;;;;;;42.53;21.02;;;0.20;97.00;;;;;;5087387;28;20491;-82
2021/01/15 06:50:37;;;;;;;38.42;20.27;;;0.20;97.00;;;;;;5088761;28;20077;-83
2021/01/15 06:53:13;;;;;;;40.92;20.98;;;0.20;97.00;;;;;;5107230;28;20043;-84
2021/01/15 06:55:39;;;;;;;37.08;17.30;;;0.20;97.00;;;;;;5066341;27;20032;-84
2021/01/15 06:58:04;;;;;;;43.90;21.65;;;0.20;97.00;;;;;;5093066;27;20502;-84
2021/01/15 07:00:30;;;;;;;43.05;21.33;;;0.30;96.80;;;;;;5078059;27;20393;-84
2021/01/15 07:03:15;;;;;;;41.28;20.60;;;0.20;97.00;;;;;;5086900;27;20035;-84
2021/01/15 07:05:45;;;;;;;40.80;19.27;;;0.30;96.80;;;;;;5111797;27;20065;-83
2021/01/15 07:08:14;;;;;;;42.60;19.42;;;0.30;96.90;;;;;;5091229;27;20102;-83
2021/01/15 07:10:40;;;;;;;36.75;18.23;;;0.30;97.00;;;;;;5070095;28;20055;-84
2021/01/15 07:13:10;;;;;;;40.20;18.98;;;0.30;97.00;;;;;;5078174;27;20058;-84
2021/01/15 07:15:53;;;;;;;42.78;20.67;;;0.30;96.90;;;;;;5077589;27;20034;-83
2021/01/15 07:18:33;;;;;;;39.85;19.02;;;0.30;96.90;;;;;;5075784;27;20491;-82
2021/01/15 07:21:07;;;;;;;42.65;17.20;;;0.30;96.80;;;;;;5086168;27;20478;-83
2021/01/15 07:23:53;;;;;;;39.55;18.88;;;0.30;96.90;;;;;;5111351;27;20031;-82
2021/01/15 07:26:18;;;;;;;40.15;19.10;;;0.30;96.90;;;;;;5075383;27;20137;-83
2021/01/15 07:28:46;;;;;;;39.65;19.77;;;0.20;97.00;;;;;;5093561;27;20099;-83
2021/01/15 07:31:22;;;;;;;40.50;19.58;;;0.20;97.00;;;;;;5068021;28;20032;-83
2021/01/15 07:33:51;;;;;;;39.83;19.90;;;0.20;97.00;;;;;;5066193;27;20032;-83
2021/01/15 07:36:36;;;;;;;40.58;21.42;;;0.20;97.10;;;;;;5076376;28;20462;-83
2021/01/15 07:39:06;;;;;;;38.78;21.35;;;0.20;97.10;;;;;;5075707;27;20057;-83
2021/01/15 07:41:45;;;;;;;39.90;22.92;;;0.30;97.10;;;;;;5087118;27;20401;-83
2021/01/15 07:44:22;;;;;;;37.45;19.38;;;0.20;97.10;;;;;;5075032;27;20031;-84
2021/01/15 07:46:49;;;;;;;37.03;19.23;;;0.20;97.10;;;;;;5099067;27;20066;-83
2021/01/15 07:49:14;;;;;;;42.67;21.38;;;0.20;97.00;;;;;;5082118;28;20130;-82
2021/01/15 07:51:40;;;;;;;34.80;17.33;;;0.20;97.10;;;;;;5092653;28;20118;-83
2021/01/15 07:54:05;;;;;;;39.70;19.15;;;0.20;97.00;;;;;;5075983;27;20449;-83
2021/01/15 07:56:31;;;;;;;37.85;20.10;;;0.20;97.10;;;;;;5077220;27;20068;-84
2021/01/15 07:58:57;;;;;;;42.38;21.65;;;0.20;97.20;;;;;;5077811;27;20426;-84
2021/01/15 08:01:23;;;;;;;37.60;19.83;;;0.20;97.10;;;;;;5093003;27;20448;-84
2021/01/15 08:03:52;;;;;;;34.55;16.85;;;0.20;97.40;;;;;;5092179;27;20224;-84
2021/01/15 08:06:18;;;;;;;39.67;19.17;;;0.20;97.10;;;;;;5074451;27;20035;-83
2021/01/15 08:09:06;;;;;;;42.47;20.73;;;0.30;97.10;;;;;;5075792;27;20492;-83
2021/01/15 08:11:33;;;;;;;39.30;20.92;;;0.30;97.00;;;;;;5110365;27;20080;-84
2021/01/15 08:14:20;;;;;;;37.50;19.23;;;0.30;97.10;;;;;;5068305;27;20482;-83
2021/01/15 08:16:46;;;;;;;35.33;17.48;;;0.30;97.10;;;;;;5091687;27;20031;-84
2021/01/15 08:19:13;;;;;;;37.50;18.67;;;0.30;97.10;;;;;;5076038;27;20047;-83
2021/01/15 08:21:43;;;;;;;38.33;18.77;;;0.40;97.60;;;;;;5094897;27;20363;-83
2021/01/15 08:24:09;;;;;;;37.08;17.92;;;0.40;97.30;;;;;;5107419;27;20535;-83
2021/01/15 08:26:43;;;;;;;37.70;19.50;;;0.40;97.30;;;;;;5076796;27;20654;-84
2021/01/15 08:29:09;;;;;;;39.13;17.40;;;0.40;97.20;;;;;;5107803;27;20034;-85
2021/01/15 08:31:34;;;;;;;36.92;18.85;;;0.40;97.40;;;;;;5088776;27;20028;-84
2021/01/15 08:34:09;;;;;;;36.28;17.27;;;0.50;97.40;;;;;;5076410;27;20027;-85
2021/01/15 08:36:37;;;;;;;34.78;17.83;;;0.50;97.40;;;;;;5079577;27;20031;-85
2021/01/15 08:39:04;;;;;;;37.28;18.65;;;0.50;97.30;;;;;;5065669;27;20447;-84
2021/01/15 08:41:29;;;;;;;38.42;17.67;;;0.50;97.30;;;;;;5072366;27;20402;-85
2021/01/15 08:43:55;;;;;;;36.55;17.85;;;0.60;97.40;;;;;;5090101;27;20023;-85
2021/01/15 08:46:22;;;;;;;35.67;17.88;;;0.60;97.40;;;;;;5093245;27;20043;-85
2021/01/15 08:48:48;;;;;;;37.42;20.80;;;0.60;97.40;;;;;;5077646;27;20034;-85
2021/01/15 08:51:20;;;;;;;32.22;18.67;;;0.60;97.40;;;;;;5065755;27;20372;-84
2021/01/15 08:54:04;;;;;;;34.90;17.70;;;0.70;97.30;;;;;;5088535;27;20028;-83
2021/01/15 08:56:46;;;;;;;40.55;21.65;;;0.70;97.40;;;;;;5080679;27;20024;-84
2021/01/15 08:59:28;;;;;;;35.10;19.10;;;0.70;97.30;;;;;;5087234;27;20031;-84
2021/01/15 09:01:54;;;;;;;40.42;20.00;;;0.70;97.40;;;;;;5090237;27;20036;-85
2021/01/15 09:04:24;;;;;;;33.20;16.02;;;0.80;97.50;;;;;;5092678;27;20391;-84
2021/01/15 09:06:53;;;;;;;33.97;17.15;;;0.80;97.50;;;;;;5074758;27;20027;-84
2021/01/15 09:09:22;;;;;;;39.03;15.88;;;0.80;97.50;;;;;;5076125;27;20096;-84
2021/01/15 09:11:49;;;;;;;39.08;19.30;;;0.90;97.60;;;;;;5076548;27;20482;-82
2021/01/15 09:14:15;;;;;;;32.88;16.98;;;0.90;97.50;;;;;;5075899;27;20057;-83
2021/01/15 09:16:41;;;;;;;35.20;17.13;;;0.90;97.60;;;;;;5071275;27;20039;-83
2021/01/15 09:19:10;;;;;;;34.90;17.67;;;1.00;97.60;;;;;;5092411;27;20039;-84
2021/01/15 09:21:46;;;;;;;36.00;18.50;;;1.00;97.60;;;;;;5072899;28;20040;-82
2021/01/15 09:24:12;;;;;;;34.80;17.55;;;1.10;97.60;;;;;;5088326;28;20065;-83
2021/01/15 09:26:38;;;;;;;32.53;16.45;;;1.10;97.60;;;;;;5067433;28;20462;-84
2021/01/15 09:29:04;;;;;;;30.45;15.70;;;1.10;97.60;;;;;;5089791;27;20027;-83
2021/01/15 09:31:32;;;;;;;34.45;16.58;;;1.20;97.60;;;;;;5089882;27;20031;-84
2021/01/15 09:33:58;;;;;;;30.63;16.13;;;1.20;97.60;;;;;;5074384;27;20062;-84
2021/01/15 09:36:25;;;;;;;27.38;15.45;;;1.20;97.60;;;;;;5075073;27;20063;-84
2021/01/15 09:38:52;;;;;;;32.53;15.38;;;1.30;97.70;;;;;;5091017;27;20030;-84
2021/01/15 09:41:18;;;;;;;32.97;18.25;;;1.30;97.70;;;;;;5086878;27;20127;-84
2021/01/15 09:43:44;;;;;;;34.05;16.80;;;1.40;97.70;;;;;;5084001;27;20453;-84
2021/01/15 09:46:22;;;;;;;35.03;19.00;;;1.40;97.40;;;;;;5093001;27;20058;-84
2021/01/15 09:48:48;;;;;;;29.83;16.38;;;1.40;97.70;;;;;;5072854;27;20033;-84
2021/01/15 09:51:13;;;;;;;30.30;15.73;;;1.40;97.70;;;;;;5086711;27;20114;-83
2021/01/15 09:53:39;;;;;;;30.65;15.88;;;1.50;97.60;;;;;;5074124;27;20023;-82
2021/01/15 09:56:05;;;;;;;29.17;13.95;;;1.40;97.60;;;;;;5108066;27;20023;-84
2021/01/15 09:58:30;;;;;;;27.35;13.50;;;1.50;97.60;;;;;;5074945;27;20023;-85
2021/01/15 10:01:02;;;;;;;30.70;16.65;;;1.50;97.60;;;;;;5074513;27;20042;-84
2021/01/15 10:03:33;;;;;;;28.40;15.38;;;1.50;97.70;;;;;;5068091;28;20059;-82
2021/01/15 10:05:59;;;;;;;32.00;15.70;;;1.60;97.70;;;;;;5094648;28;20032;-83
2021/01/15 10:08:24;;;;;;;28.27;14.48;;;1.60;97.80;;;;;;5090677;28;20076;-83
2021/01/15 10:10:50;;;;;;;30.17;18.33;;;1.70;97.90;;;;;;5088048;28;20126;-83
2021/01/15 10:13:15;;;;;;;29.65;15.10;;;1.70;97.60;;;;;;5088210;28;20089;-83
2021/01/15 10:15:41;;;;;;;30.40;15.27;;;1.70;97.80;;;;;;5074482;28;20035;-84
2021/01/15 10:18:06;;;;;;;27.13;13.63;;;1.80;97.90;;;;;;5091253;28;20039;-84
2021/01/15 10:20:32;;;;;;;28.52;15.63;;;1.90;98.00;;;;;;5103369;28;20108;-84
2021/01/15 10:22:58;;;;;;;29.88;15.13;;;2.00;98.00;;;;;;5110713;28;20027;-84
2021/01/15 10:25:26;;;;;;;29.08;14.73;;;2.00;98.00;;;;;;5107960;28;20015;-84
2021/01/15 10:27:54;;;;;;;30.25;14.82;;;2.10;98.10;;;;;;5109394;28;20054;-83
2021/01/15 10:30:21;;;;;;;26.60;14.30;;;2.10;98.10;;;;;;5089721;28;20164;-83
2021/01/15 10:32:47;;;;;;;30.55;14.23;;;2.20;98.10;;;;;;5092969;27;20023;-82
2021/01/15 10:35:12;;;;;;;28.55;13.77;;;2.20;98.20;;;;;;5110229;27;20522;-83
2021/01/15 10:37:39;;;;;;;27.10;14.98;;;2.30;98.30;;;;;;5066307;27;20160;-83
2021/01/15 10:40:08;;;;;;;28.85;15.20;;;2.40;98.30;;;;;;5099222;28;20201;-85
2021/01/15 10:42:38;;;;;;;24.88;12.27;;;2.50;98.20;;;;;;5095624;27;20376;-84
2021/01/15 10:45:05;;;;;;;25.50;13.95;;;2.40;98.10;;;;;;5106958;27;20020;-84
2021/01/15 10:47:34;;;;;;;26.25;14.98;;;2.60;98.10;;;;;;5093184;27;20032;-84
2021/01/15 10:49:59;;;;;;;26.80;16.00;;;2.60;98.00;;;;;;5095638;27;20033;-83
2021/01/15 10:52:25;;;;;;;23.95;12.85;;;2.60;97.90;;;;;;5091980;27;20023;-83
2021/01/15 10:54:51;;;;;;;24.77;13.60;;;2.70;98.20;;;;;;5081628;27;20034;-83
2021/01/15 10:57:16;;;;;;;26.20;13.25;;;2.70;98.00;;;;;;5108162;27;20159;-83
2021/01/15 10:59:42;;;;;;;26.55;13.90;;;2.80;98.20;;;;;;5094661;27;20600;-85
2021/01/15 11:02:08;;;;;;;21.02;10.93;;;2.80;97.90;;;;;;5089843;27;20043;-84
2021/01/15 11:04:33;;;;;;;24.70;11.73;;;2.90;98.00;;;;;;5076629;27;20032;-84
2021/01/15 11:07:00;;;;;;;21.30;11.25;;;3.00;98.30;;;;;;5092348;27;20028;-84
2021/01/15 11:09:26;;;;;;;24.50;11.63;;;3.00;98.30;;;;;;5092714;27;20034;-84
2021/01/15 11:11:52;;;;;;;23.40;11.60;;;3.00;98.10;;;;;;5092543;27;20039;-82
2021/01/15 11:14:18;;;;;;;21.55;11.73;;;3.10;98.10;;;;;;5076365;27;20103;-83
2021/01/15 11:16:43;;;;;;;25.20;13.88;;;3.10;98.00;;;;;;5094149;27;20065;-84
2021/01/15 11:19:12;;;;;;;25.23;12.40;;;3.10;98.00;;;;;;5082425;27;20042;-84
2021/01/15 11:21:37;;;;;;;24.70;12.77;;;3.10;98.00;;;;;;5109317;27;20031;-84
2021/01/15 11:24:04;;;;;;;22.00;12.05;;;3.20;98.10;;;;;;5093440;27;20492;-84
2021/01/15 11:26:31;;;;;;;21.25;11.25;;;3.20;98.10;;;;;;5092154;27;20038;-83
2021/01/15 11:29:01;;;;;;;24.05;12.60;;;3.20;98.00;;;;;;5092946;27;20417;-82
2021/01/15 11:31:26;;;;;;;23.65;12.40;;;3.30;98.10;;;;;;5093125;27;20042;-84
2021/01/15 11:33:52;;;;;;;20.45;10.55;;;3.30;97.60;;;;;;5073547;27;20032;-83
2021/01/15 11:36:17;;;;;;;20.55;11.05;;;3.30;97.70;;;;;;5077444;27;20081;-80
2021/01/15 11:38:46;;;;;;;21.73;10.20;;;3.30;98.10;;;;;;5076735;27;20035;-84
2021/01/15 11:41:12;;;;;;;23.15;11.07;;;3.30;98.20;;;;;;5088678;27;20058;-83
2021/01/15 11:43:38;;;;;;;21.10;11.85;;;3.40;98.20;;;;;;5092633;27;20043;-83
2021/01/15 11:46:04;;;;;;;23.58;11.95;;;3.40;98.00;;;;;;5093106;27;20035;-83
2021/01/15 11:48:29;;;;;;;22.33;12.50;;;3.50;98.20;;;;;;5075410;27;20031;-84
2021/01/15 11:50:56;;;;;;;20.65;10.43;;;3.40;97.70;;;;;;5077193;27;20023;-84
2021/01/15 11:53:22;;;;;;;22.33;12.98;;;3.50;97.70;;;;;;5093266;27;20027;-85
2021/01/15 11:55:51;;;;;;;21.35;12.20;;;3.50;97.50;;;;;;5077446;27;20566;-83
2021/01/15 11:58:17;;;;;;;22.65;12.75;;;3.40;97.10;;;;;;5076793;27;20645;-83
2021/01/15 12:00:43;;;;;;;21.85;12.63;;;3.40;97.10;;;;;;5092904;27;20051;-86
2021/01/15 12:03:08;;;;;;;22.55;12.85;;;3.40;96.80;;;;;;4391898;27;10000488;-85
2021/01/15 12:05:41;;;;;;;20.05;11.70;;;3.40;96.40;;;;;;5081048;27;20088;-83
2021/01/15 12:08:06;;;;;;;29.77;12.15;;;3.40;96.70;;;;;;5094292;27;20070;-85
2021/01/15 12:10:32;;;;;;;23.00;11.73;;;3.40;96.40;;;;;;5088098;27;20112;-84
2021/01/15 12:12:57;;;;;;;21.35;11.52;;;3.40;96.40;;;;;;5089758;27;20122;-84
2021/01/15 12:15:23;;;;;;;23.55;10.98;;;3.40;96.30;;;;;;5087846;27;20058;-84
2021/01/15 12:17:49;;;;;;;24.67;12.93;;;3.30;96.10;;;;;;5088716;27;20035;-84
2021/01/15 12:20:21;;;;;;;23.80;12.00;;;3.40;96.20;;;;;;5088328;27;20031;-85
2021/01/15 12:22:48;;;;;;;20.98;11.98;;;3.30;96.30;;;;;;5070986;27;20020;-84
2021/01/15 12:25:14;;;;;;;22.30;10.63;;;3.40;96.40;;;;;;5063904;27;20027;-83
2021/01/15 12:27:39;;;;;;;24.95;13.57;;;3.30;95.90;;;;;;5072657;27;20482;-84
2021/01/15 12:30:06;;;;;;;27.55;14.25;;;3.30;96.10;;;;;;5074170;27;20031;-83
2021/01/15 12:32:31;;;;;;;23.05;12.70;;;3.30;95.10;;;;;;5092495;27;20027;-83
2021/01/15 12:34:59;;;;;;;25.33;15.30;;;3.20;95.60;;;;;;5089454;27;20022;-82
2021/01/15 12:37:25;;;;;;;26.55;15.80;;;3.20;95.40;;;;;;5091599;27;20106;-83
2021/01/15 12:39:51;;;;;;;27.90;16.20;;;3.10;94.70;;;;;;5077618;27;20172;-84
2021/01/15 12:42:17;;;;;;;31.48;17.20;;;3.00;94.70;;;;;;5091353;27;20085;-84